Time;durP1;ratioP1;P1;durP2;ratioP2;P2;SDS_P1;SDS_P2;PMS_P1;PMS_P2;Temp;Humidity;BMP_temperature;BMP_pressure;BME280_temperature;BME280_humidity;BME280_pressure;Samples;Min_cycle;Max_cycle;Signal;HPM_P1;HPM_P2
2024/01/02 00:00:22;;;;;;;8.40;4.47;;;;;;;4.32;100.00;98416.72;5050732;28;20443;-69
2024/01/02 00:02:48;;;;;;;7.93;4.38;;;;;;;4.27;100.00;98414.50;5059792;28;20027;-70
2024/01/02 00:05:15;;;;;;;8.40;4.57;;;;;;;4.31;100.00;98421.06;5066246;28;20040;-69
2024/01/02 00:07:43;;;;;;;7.72;4.88;;;;;;;4.16;100.00;98422.16;5059719;28;20047;-71
2024/01/02 00:10:11;;;;;;;8.73;4.65;;;;;;;4.05;100.00;98402.31;5051235;28;20035;-69
2024/01/02 00:12:36;;;;;;;7.13;4.38;;;;;;;4.17;100.00;98421.22;5069812;28;20530;-69
2024/01/02 00:15:07;;;;;;;7.45;4.22;;;;;;;4.27;100.00;98431.69;5054207;28;20110;-71
2024/01/02 00:17:33;;;;;;;7.53;4.30;;;;;;;4.24;100.00;98453.31;5071429;28;20162;-70
2024/01/02 00:19:58;;;;;;;7.88;4.25;;;;;;;4.21;100.00;98453.53;5059480;28;20021;-68
2024/01/02 00:22:26;;;;;;;8.82;4.30;;;;;;;4.16;100.00;98453.88;5072159;28;20024;-70
2024/01/02 00:24:51;;;;;;;8.10;4.60;;;;;;;3.89;100.00;98412.03;5060140;28;20043;-69
2024/01/02 00:27:22;;;;;;;8.25;4.50;;;;;;;4.09;100.00;98450.09;5068330;28;20056;-70
2024/01/02 00:29:47;;;;;;;9.57;5.00;;;;;;;3.82;100.00;98391.09;5058447;28;20030;-72
2024/01/02 00:32:12;;;;;;;8.23;5.10;;;;;;;3.85;100.00;98383.13;5054516;28;20024;-70
2024/01/02 00:34:38;;;;;;;8.13;4.97;;;;;;;4.15;100.00;98441.91;5064873;28;20035;-71
2024/01/02 00:37:03;;;;;;;7.43;4.45;;;;;;;4.15;100.00;98428.25;5054722;28;20093;-70
2024/01/02 00:39:31;;;;;;;7.97;4.47;;;;;;;4.26;100.00;98410.28;5067370;28;20039;-71
2024/01/02 00:41:56;;;;;;;7.65;4.68;;;;;;;4.17;100.00;98385.19;5071162;28;20051;-70
2024/01/02 00:44:22;;;;;;;8.82;4.90;;;;;;;4.39;100.00;98393.00;5069089;28;20473;-69
2024/01/02 00:46:47;;;;;;;10.55;4.85;;;;;;;4.34;100.00;98387.38;5070295;28;20546;-70
2024/01/02 00:49:12;;;;;;;7.43;4.55;;;;;;;4.26;100.00;98397.41;5072233;28;20028;-68
2024/01/02 00:51:38;;;;;;;8.38;4.43;;;;;;;4.12;100.00;98403.53;5064065;28;20562;-69
2024/01/02 00:54:03;;;;;;;8.23;4.68;;;;;;;3.72;100.00;98359.22;5057631;28;20046;-70
2024/01/02 00:56:29;;;;;;;9.15;4.70;;;;;;;4.23;100.00;98420.78;5069524;28;20033;-69
2024/01/02 00:58:54;;;;;;;8.73;4.90;;;;;;;4.20;100.00;98424.41;5064666;28;20033;-70
2024/01/02 01:01:20;;;;;;;7.97;4.53;;;;;;;4.20;100.00;98426.97;5052894;28;20028;-71
2024/01/02 01:03:50;;;;;;;9.27;4.75;;;;;;;4.30;100.00;98434.84;5045313;28;20430;-69
2024/01/02 01:06:15;;;;;;;7.72;4.30;;;;;;;4.28;100.00;98428.19;5069725;28;20487;-68
2024/01/02 01:08:41;;;;;;;7.93;4.78;;;;;;;4.23;100.00;98415.63;5067688;28;20031;-70
2024/01/02 01:11:12;;;;;;;7.90;4.70;;;;;;;4.18;100.00;98425.44;5054475;28;20056;-70
2024/01/02 01:13:38;;;;;;;7.82;4.40;;;;;;;4.14;100.00;98435.13;5064919;28;20032;-70
2024/01/02 01:16:03;;;;;;;7.30;4.25;;;;;;;4.10;100.00;98425.97;5070581;28;20502;-67
2024/01/02 01:18:29;;;;;;;8.10;4.35;;;;;;;4.18;100.00;98428.84;5068517;28;20252;-69
2024/01/02 01:20:54;;;;;;;6.85;4.25;;;;;;;4.33;100.00;98419.22;5069542;28;20747;-68
2024/01/02 01:23:20;;;;;;;8.10;4.60;;;;;;;4.40;100.00;98414.44;5067723;28;20043;-70
2024/01/02 01:25:45;;;;;;;7.20;4.07;;;;;;;3.93;100.00;98352.56;5062978;28;20560;-69
2024/01/02 01:28:11;;;;;;;7.50;4.25;;;;;;;4.31;100.00;98385.03;5054606;28;20032;-70
2024/01/02 01:30:38;;;;;;;6.63;4.05;;;;;;;4.32;100.00;98375.53;5055199;28;20468;-70
2024/01/02 01:33:04;;;;;;;8.77;4.68;;;;;;;4.32;100.00;98368.63;5054598;28;20032;-70
2024/01/02 01:35:29;;;;;;;7.63;4.40;;;;;;;4.13;100.00;98333.13;5071058;28;20035;-70
2024/01/02 01:37:55;;;;;;;8.30;4.15;;;;;;;4.27;100.00;98378.47;5051347;28;20025;-69
2024/01/02 01:40:20;;;;;;;8.55;3.80;;;;;;;4.04;100.00;98375.78;5053256;28;20024;-69
2024/01/02 01:42:53;;;;;;;7.05;4.10;;;;;;;4.21;100.00;98407.19;5066505;28;20028;-68
2024/01/02 01:45:20;;;;;;;7.90;4.45;;;;;;;4.32;100.00;98399.53;5064616;28;20041;-68
2024/01/02 01:47:46;;;;;;;7.05;3.92;;;;;;;4.35;100.00;98403.66;5059142;28;20072;-69
2024/01/02 01:50:14;;;;;;;8.80;4.07;;;;;;;4.39;100.00;98411.03;5069209;28;20103;-69
2024/01/02 01:52:41;;;;;;;7.15;4.18;;;;;;;4.35;100.00;98389.03;5073094;28;20686;-69
2024/01/02 01:55:07;;;;;;;7.60;3.95;;;;;;;4.36;100.00;98387.25;5052432;28;20038;-69
2024/01/02 01:57:32;;;;;;;6.65;3.90;;;;;;;4.41;100.00;98387.75;5058955;28;20021;-69
2024/01/02 01:59:58;;;;;;;7.03;4.20;;;;;;;4.38;100.00;98388.81;5055512;28;20470;-69
2024/01/02 02:02:23;;;;;;;6.35;3.90;;;;;;;4.42;100.00;98402.28;5073748;28;20154;-69
2024/01/02 02:04:50;;;;;;;8.43;3.90;;;;;;;4.12;100.00;98348.66;5073661;28;20080;-69
2024/01/02 02:07:15;;;;;;;8.35;4.43;;;;;;;4.35;100.00;98409.63;5052243;28;20043;-70
2024/01/02 02:09:41;;;;;;;8.00;4.03;;;;;;;4.35;100.00;98401.88;5054353;28;20032;-70
2024/01/02 02:12:07;;;;;;;7.47;4.00;;;;;;;4.35;100.00;98396.75;5061084;28;20043;-70
2024/01/02 02:14:35;;;;;;;6.57;3.88;;;;;;;4.36;100.00;98389.84;5072617;28;20043;-70
2024/01/02 02:17:02;;;;;;;6.65;3.80;;;;;;;4.00;100.00;98352.97;5071000;28;20044;-69
2024/01/02 02:19:32;;;;;;;9.73;4.38;;;;;;;3.95;100.00;98334.44;5049787;28;20622;-69
2024/01/02 02:22:00;;;;;;;8.52;4.10;;;;;;;4.29;100.00;98386.06;5067350;28;20040;-69
2024/01/02 02:24:26;;;;;;;7.43;4.60;;;;;;;4.13;100.00;98381.22;5069407;28;20140;-69
2024/01/02 02:26:57;;;;;;;7.47;4.35;;;;;;;3.81;100.00;98349.09;5074823;28;20040;-69
2024/01/02 02:29:25;;;;;;;7.95;3.72;;;;;;;4.05;100.00;98363.72;5073925;28;20527;-69
2024/01/02 02:31:50;;;;;;;7.40;4.20;;;;;;;4.10;100.00;98389.94;5067655;28;20031;-70
2024/01/02 02:34:16;;;;;;;6.68;3.80;;;;;;;4.10;100.00;98389.13;5070269;28;20583;-70
2024/01/02 02:36:41;;;;;;;6.88;4.00;;;;;;;4.10;100.00;98387.38;5072499;28;20098;-69
2024/01/02 02:39:09;;;;;;;7.25;4.10;;;;;;;3.98;100.00;98391.66;5056640;28;20072;-70
2024/01/02 02:41:36;;;;;;;7.68;4.60;;;;;;;4.10;100.00;98386.56;5071243;28;20483;-70
2024/01/02 02:44:01;;;;;;;8.00;3.90;;;;;;;4.05;100.00;98384.31;5075223;28;20054;-69
2024/01/02 02:46:26;;;;;;;7.65;3.70;;;;;;;4.03;100.00;98386.16;5055951;28;20674;-71
2024/01/02 02:48:52;;;;;;;8.13;3.80;;;;;;;3.99;100.00;98377.84;5071299;28;20120;-70
2024/01/02 02:51:20;;;;;;;7.07;4.10;;;;;;;4.10;100.00;98371.94;5070462;28;20042;-68
2024/01/02 02:53:48;;;;;;;7.32;3.70;;;;;;;4.11;100.00;98373.59;5074257;28;20035;-69
2024/01/02 02:56:16;;;;;;;8.85;3.95;;;;;;;4.14;100.00;98373.34;5070304;28;20032;-70
2024/01/02 02:58:41;;;;;;;6.93;3.92;;;;;;;4.22;100.00;98363.34;5074330;28;20060;-70
2024/01/02 03:01:13;;;;;;;9.38;4.00;;;;;;;4.32;100.00;98368.63;5056629;28;20181;-70
2024/01/02 03:03:38;;;;;;;7.75;3.90;;;;;;;4.28;100.00;98359.50;5057508;28;20040;-71
2024/01/02 03:06:04;;;;;;;7.00;3.70;;;;;;;4.08;100.00;98335.22;5051594;28;20786;-69
2024/01/02 03:08:29;;;;;;;6.97;3.45;;;;;;;4.34;100.00;98369.34;5073984;28;20052;-70
2024/01/02 03:10:59;;;;;;;7.40;3.40;;;;;;;4.11;100.00;98337.56;5056663;28;20028;-71
2024/01/02 03:13:28;;;;;;;6.32;3.00;;;;;;;4.29;100.00;98362.88;5083099;28;20042;-71
2024/01/02 03:15:53;;;;;;;5.60;2.95;;;;;;;4.47;100.00;98378.75;5071156;28;20027;-70
2024/01/02 03:18:20;;;;;;;6.30;3.03;;;;;;;4.38;100.00;98363.06;5056322;28;20036;-72
2024/01/02 03:20:48;;;;;;;6.50;3.42;;;;;;;4.37;100.00;98371.72;5055230;28;20032;-68
2024/01/02 03:23:16;;;;;;;6.00;3.37;;;;;;;4.26;100.00;98355.41;5053510;28;20036;-70
2024/01/02 03:25:44;;;;;;;6.70;3.10;;;;;;;4.27;100.00;98351.88;5056986;28;20035;-70
2024/01/02 03:28:09;;;;;;;6.35;3.42;;;;;;;4.22;100.00;98365.91;5066041;28;20016;-70
2024/01/02 03:30:37;;;;;;;6.32;3.05;;;;;;;4.26;100.00;98363.94;5054606;28;21192;-71
2024/01/02 03:33:04;;;;;;;6.30;3.05;;;;;;;4.17;100.00;98324.25;5067683;28;20012;-70
2024/01/02 03:35:32;;;;;;;6.00;3.20;;;;;;;4.49;100.00;98375.16;5068586;28;20031;-70
2024/01/02 03:38:02;;;;;;;6.57;3.22;;;;;;;4.53;100.00;98368.84;5061928;28;20887;-70
2024/01/02 03:40:30;;;;;;;6.47;3.55;;;;;;;4.55;100.00;98371.31;5068803;28;20090;-70
2024/01/02 03:42:55;;;;;;;6.70;3.10;;;;;;;4.60;100.00;98366.66;5063807;28;20043;-70
2024/01/02 03:45:23;;;;;;;7.82;3.40;;;;;;;4.43;100.00;98363.56;5049865;28;20147;-70
2024/01/02 03:47:51;;;;;;;6.45;3.40;;;;;;;4.12;100.00;98330.66;5069111;28;20024;-70
2024/01/02 03:50:17;;;;;;;6.53;3.45;;;;;;;4.11;100.00;98316.16;5052308;28;20147;-69
2024/01/02 03:52:42;;;;;;;6.18;3.00;;;;;;;4.31;100.00;98358.44;5072200;28;20020;-70
2024/01/02 03:55:10;;;;;;;6.30;3.35;;;;;;;4.36;100.00;98354.63;5068366;28;20159;-70
2024/01/02 03:57:38;;;;;;;7.25;3.45;;;;;;;4.20;100.00;98316.31;5057569;28;21221;-69
2024/01/02 04:00:05;;;;;;;7.65;3.65;;;;;;;4.44;100.00;98364.38;5057364;28;20043;-69
2024/01/02 04:02:30;;;;;;;6.50;3.33;;;;;;;4.12;100.00;98300.59;5067695;28;20085;-69
2024/01/02 04:04:55;;;;;;;7.20;3.15;;;;;;;4.53;100.00;98347.44;5058775;28;20024;-71
2024/01/02 04:07:23;;;;;;;6.28;3.17;;;;;;;4.47;100.00;98332.41;5055226;28;20059;-70
2024/01/02 04:09:49;;;;;;;6.40;3.00;;;;;;;4.42;100.00;98343.88;5053532;28;20035;-70
2024/01/02 04:12:17;;;;;;;6.15;3.30;;;;;;;4.39;100.00;98336.38;5051651;28;20032;-69
2024/01/02 04:14:42;;;;;;;6.22;2.92;;;;;;;4.10;100.00;98286.22;5058984;28;20066;-70
2024/01/02 04:17:10;;;;;;;5.78;2.95;;;;;;;4.38;100.00;98327.03;5067427;28;20103;-71
2024/01/02 04:19:38;;;;;;;6.05;2.80;;;;;;;4.23;100.00;98328.13;5071049;28;20067;-70
2024/01/02 04:22:04;;;;;;;6.78;3.00;;;;;;;4.25;100.00;98346.84;5048313;28;20013;-69
2024/01/02 04:24:30;;;;;;;6.20;2.92;;;;;;;4.12;100.00;98323.75;5052246;28;20070;-69
2024/01/02 04:26:55;;;;;;;5.22;2.47;;;;;;;3.94;100.00;98310.50;5071614;28;20165;-70
2024/01/02 04:29:20;;;;;;;5.78;2.83;;;;;;;4.22;100.00;98340.19;5062649;28;20039;-71
2024/01/02 04:31:46;;;;;;;7.13;3.13;;;;;;;4.28;100.00;98333.75;5077064;28;20032;-71
2024/01/02 04:34:12;;;;;;;5.43;2.75;;;;;;;4.35;100.00;98352.97;5069941;28;20054;-70
2024/01/02 04:36:40;;;;;;;6.70;2.97;;;;;;;4.39;100.00;98354.41;5059389;28;20474;-70
2024/01/02 04:39:06;;;;;;;6.30;2.80;;;;;;;4.33;100.00;98347.13;5072805;28;20073;-72
2024/01/02 04:41:32;;;;;;;6.90;3.25;;;;;;;4.33;100.00;98344.56;5064883;28;20024;-71
2024/01/02 04:43:59;;;;;;;5.90;2.97;;;;;;;4.31;100.00;98355.88;5068417;28;20055;-72
2024/01/02 04:46:30;;;;;;;5.18;2.75;;;;;;;4.22;100.00;98354.81;5071793;28;20030;-71
2024/01/02 04:48:56;;;;;;;5.50;2.70;;;;;;;4.20;100.00;98362.63;5056112;28;20744;-71
2024/01/02 04:51:21;;;;;;;6.28;3.03;;;;;;;3.88;100.00;98317.81;5063947;28;20024;-71
2024/01/02 04:53:47;;;;;;;6.55;2.78;;;;;;;4.21;100.00;98360.88;5076798;28;20028;-71
2024/01/02 04:56:14;;;;;;;5.82;2.97;;;;;;;4.14;100.00;98369.97;5072938;28;20020;-72
2024/01/02 04:58:40;;;;;;;5.00;2.58;;;;;;;4.08;100.00;98373.00;5059279;28;20067;-69
2024/01/02 05:01:08;;;;;;;5.65;2.72;;;;;;;4.05;100.00;98361.16;5078961;28;20099;-70
2024/01/02 05:03:35;;;;;;;7.13;2.83;;;;;;;3.86;100.00;98320.50;5071126;28;20028;-69
2024/01/02 05:06:01;;;;;;;5.63;2.78;;;;;;;4.12;100.00;98340.94;5070700;28;20037;-69
2024/01/02 05:08:28;;;;;;;7.55;2.90;;;;;;;4.12;100.00;98344.34;5069309;28;20024;-70
2024/01/02 05:10:54;;;;;;;6.25;2.80;;;;;;;4.21;100.00;98340.28;5079668;28;20071;-71
2024/01/02 05:13:19;;;;;;;6.10;3.00;;;;;;;4.21;100.00;98340.28;5073469;28;20131;-68
2024/01/02 05:15:44;;;;;;;6.15;2.88;;;;;;;4.20;100.00;98354.09;5073533;28;20633;-70
2024/01/02 05:18:10;;;;;;;5.57;2.67;;;;;;;4.09;100.00;98349.72;5059139;28;20043;-69
2024/01/02 05:20:38;;;;;;;5.28;2.90;;;;;;;4.02;100.00;98346.75;5067784;28;20036;-70
2024/01/02 05:23:04;;;;;;;6.00;2.95;;;;;;;3.82;100.00;98298.50;5050315;28;20028;-70
2024/01/02 05:25:39;;;;;;;6.10;3.00;;;;;;;4.11;100.00;98345.28;5055987;28;20457;-70
2024/01/02 05:28:07;;;;;;;7.80;3.17;;;;;;;4.02;100.00;98340.81;5069397;28;20036;-70
2024/01/02 05:30:32;;;;;;;6.18;2.90;;;;;;;4.05;100.00;98350.84;5059845;28;20618;-68
2024/01/02 05:33:00;;;;;;;6.03;3.13;;;;;;;4.01;100.00;98354.59;5067166;28;20799;-71
2024/01/02 05:35:28;;;;;;;6.60;2.67;;;;;;;3.82;100.00;98309.59;5059639;28;20020;-71
2024/01/02 05:37:53;;;;;;;5.90;2.53;;;;;;;3.88;100.00;98320.38;5071915;28;20032;-71
2024/01/02 05:40:21;;;;;;;5.82;3.03;;;;;;;3.94;100.00;98341.34;5071816;28;20039;-71
2024/01/02 05:42:46;;;;;;;5.65;3.08;;;;;;;3.76;100.00;98311.78;5060281;28;20024;-70
2024/01/02 05:45:14;;;;;;;5.47;2.70;;;;;;;3.69;100.00;98290.00;5054974;28;20981;-71
2024/01/02 05:47:39;;;;;;;5.60;2.72;;;;;;;4.00;100.00;98315.19;5056773;28;20020;-70
2024/01/02 05:50:07;;;;;;;5.80;2.80;;;;;;;3.71;100.00;98277.88;5071223;28;20040;-68
2024/01/02 05:52:35;;;;;;;6.68;2.67;;;;;;;4.01;100.00;98334.81;5071955;28;20114;-69
2024/01/02 05:55:03;;;;;;;6.07;2.75;;;;;;;3.53;100.00;98285.13;5056547;28;20085;-70
2024/01/02 05:57:28;;;;;;;5.22;2.38;;;;;;;3.85;100.00;98339.41;5059675;28;20040;-70
2024/01/02 05:59:54;;;;;;;6.38;2.50;;;;;;;3.85;100.00;98344.56;5056904;28;20032;-70
2024/01/02 06:02:19;;;;;;;5.63;2.50;;;;;;;3.87;100.00;98340.16;5054008;28;20557;-68
2024/01/02 06:04:44;;;;;;;6.10;2.40;;;;;;;3.54;100.00;98279.06;5053701;28;20039;-70
2024/01/02 06:07:10;;;;;;;4.63;2.38;;;;;;;3.90;100.00;98341.66;5052204;28;20032;-69
2024/01/02 06:09:35;;;;;;;6.40;2.35;;;;;;;3.82;100.00;98339.66;5069561;28;20607;-70
2024/01/02 06:12:00;;;;;;;4.95;2.20;;;;;;;3.78;100.00;98346.75;5056006;28;20111;-69
2024/01/02 06:14:26;;;;;;;5.43;2.72;;;;;;;3.82;100.00;98344.78;5068867;28;20039;-71
2024/01/02 06:16:51;;;;;;;6.47;2.15;;;;;;;3.93;100.00;98356.91;5074555;28;20152;-72
2024/01/02 06:19:21;;;;;;;5.28;2.20;;;;;;;3.60;100.00;98294.88;5070324;28;20060;-71
2024/01/02 06:21:47;;;;;;;4.68;2.03;;;;;;;3.93;100.00;98326.84;5057164;28;20740;-69
2024/01/02 06:24:12;;;;;;;4.47;1.77;;;;;;;3.80;100.00;98295.22;5065680;28;20070;-69
2024/01/02 06:26:38;;;;;;;4.50;2.10;;;;;;;4.14;100.00;98339.09;5075602;28;20679;-70
2024/01/02 06:29:03;;;;;;;5.28;2.00;;;;;;;4.20;100.00;98343.81;5069482;28;20040;-68
2024/01/02 06:31:28;;;;;;;4.78;2.10;;;;;;;4.20;100.00;98343.81;5069613;28;20036;-71
2024/01/02 06:33:56;;;;;;;5.28;2.35;;;;;;;4.21;100.00;98340.28;5052146;28;20036;-71
2024/01/02 06:36:24;;;;;;;5.53;2.28;;;;;;;4.29;100.00;98345.72;5057744;28;20151;-74
2024/01/02 06:38:52;;;;;;;4.22;1.90;;;;;;;3.96;100.00;98307.78;5056404;28;20027;-70
2024/01/02 06:41:19;;;;;;;5.20;2.00;;;;;;;4.27;99.90;98352.72;5071886;28;20042;-71
2024/01/02 06:43:44;;;;;;;5.50;2.05;;;;;;;4.29;99.96;98350.03;5052041;28;20028;-71
2024/01/02 06:46:12;;;;;;;4.70;2.00;;;;;;;4.01;100.00;98321.94;5068665;28;20051;-70
2024/01/02 06:48:38;;;;;;;5.05;2.25;;;;;;;4.35;100.00;98363.28;5072967;28;20038;-69
2024/01/02 06:51:03;;;;;;;4.07;1.77;;;;;;;4.38;100.00;98369.94;5074737;28;20035;-67
2024/01/02 06:53:31;;;;;;;4.90;1.90;;;;;;;4.27;100.00;98351.88;5051975;28;20042;-71
2024/01/02 06:56:01;;;;;;;4.70;1.98;;;;;;;4.41;100.00;98373.13;5068760;28;20153;-71
2024/01/02 06:58:27;;;;;;;4.82;1.80;;;;;;;4.27;100.00;98365.59;5060514;28;20459;-69
2024/01/02 07:00:54;;;;;;;6.65;1.95;;;;;;;4.37;100.00;98383.75;5067428;28;20104;-68
2024/01/02 07:03:22;;;;;;;5.05;1.95;;;;;;;4.09;100.00;98339.44;5070368;28;20095;-70
2024/01/02 07:05:48;;;;;;;4.95;2.35;;;;;;;4.06;100.00;98326.78;5072857;28;20033;-70
2024/01/02 07:08:13;;;;;;;4.60;2.05;;;;;;;4.36;100.00;98370.09;5072589;28;20042;-71
2024/01/02 07:10:38;;;;;;;6.10;2.10;;;;;;;4.41;100.00;98372.31;5063337;28;20111;-69
2024/01/02 07:13:07;;;;;;;5.05;2.00;;;;;;;4.08;100.00;98337.78;5074170;28;20530;-69
2024/01/02 07:15:35;;;;;;;5.18;2.28;;;;;;;4.40;100.00;98391.28;5068571;28;20235;-71
2024/01/02 07:18:02;;;;;;;4.75;1.85;;;;;;;4.38;100.00;98390.53;5070340;28;20103;-69
2024/01/02 07:20:28;;;;;;;4.97;2.22;;;;;;;4.42;100.00;98387.66;5067365;28;20033;-72
2024/01/02 07:22:54;;;;;;;4.88;2.10;;;;;;;4.46;100.00;98406.28;5062944;28;20101;-70
2024/01/02 07:25:19;;;;;;;4.97;2.13;;;;;;;4.47;100.00;98394.22;5067024;28;20032;-69
2024/01/02 07:27:47;;;;;;;4.80;2.30;;;;;;;4.44;100.00;98395.25;5048948;28;20033;-70
2024/01/02 07:30:13;;;;;;;6.28;2.55;;;;;;;4.16;100.00;98347.50;5064729;28;20043;-71
2024/01/02 07:32:38;;;;;;;4.97;2.22;;;;;;;4.45;100.00;98403.81;5059007;28;21458;-71
2024/01/02 07:35:04;;;;;;;6.63;2.60;;;;;;;4.18;100.00;98392.81;5063083;28;20036;-71
2024/01/02 07:37:30;;;;;;;5.95;2.67;;;;;;;4.21;100.00;98390.00;5062750;28;20040;-68
2024/01/02 07:39:55;;;;;;;5.35;2.55;;;;;;;3.99;100.00;98344.41;5060665;28;20054;-69
2024/01/02 07:42:21;;;;;;;6.50;2.40;;;;;;;4.27;100.00;98399.06;5045201;28;20027;-68
2024/01/02 07:44:46;;;;;;;6.65;2.45;;;;;;;4.34;100.00;98386.56;5062989;28;20055;-68
2024/01/02 07:47:11;;;;;;;5.55;2.33;;;;;;;3.99;100.00;98352.13;5053676;28;20387;-70
2024/01/02 07:49:39;;;;;;;6.80;2.65;;;;;;;4.24;100.00;98382.06;5065569;28;20138;-71
2024/01/02 07:52:05;;;;;;;4.95;2.35;;;;;;;4.05;100.00;98371.44;5048030;28;20032;-69
2024/01/02 07:54:35;;;;;;;5.68;2.75;;;;;;;4.10;100.00;98378.84;5065045;28;20046;-71
2024/01/02 07:57:00;;;;;;;8.02;3.00;;;;;;;4.20;100.00;98385.00;5053414;28;20029;-69
2024/01/02 07:59:26;;;;;;;6.45;3.35;;;;;;;4.11;100.00;98381.31;5065413;28;20028;-72
2024/01/02 08:01:51;;;;;;;6.65;3.33;;;;;;;4.02;100.00;98393.06;5050495;28;20111;-71
2024/01/02 08:04:17;;;;;;;6.88;3.25;;;;;;;3.94;100.00;98395.38;5061910;28;20037;-70
2024/01/02 08:06:42;;;;;;;6.70;3.28;;;;;;;4.01;100.00;98381.13;5071502;28;20601;-69
2024/01/02 08:09:10;;;;;;;8.20;3.85;;;;;;;3.71;100.00;98342.16;5067973;28;20115;-70
2024/01/02 08:11:37;;;;;;;6.80;3.45;;;;;;;3.85;100.00;98388.28;5046758;28;20729;-71
2024/01/02 08:14:02;;;;;;;7.72;3.72;;;;;;;3.91;100.00;98393.00;5062342;28;20035;-71
2024/01/02 08:16:28;;;;;;;6.45;3.42;;;;;;;3.77;100.00;98354.56;5052438;28;20039;-71
2024/01/02 08:18:53;;;;;;;10.48;4.50;;;;;;;3.79;100.00;98386.97;5050360;28;20094;-70
2024/01/02 08:21:21;;;;;;;6.93;3.65;;;;;;;3.86;100.00;98397.66;5068883;28;20042;-71
2024/01/02 08:23:49;;;;;;;7.05;3.78;;;;;;;3.90;100.00;98403.41;5049054;28;20036;-71
2024/01/02 08:26:19;;;;;;;7.88;4.05;;;;;;;3.83;100.00;98413.28;5067910;28;20044;-67
2024/01/02 08:28:47;;;;;;;7.35;3.40;;;;;;;3.64;100.00;98424.03;5063972;28;20044;-70
2024/01/02 08:31:13;;;;;;;6.45;2.97;;;;;;;3.26;100.00;98391.50;5061967;28;20032;-69
2024/01/02 08:33:38;;;;;;;7.85;2.90;;;;;;;3.63;100.00;98427.53;5061147;28;20054;-69
2024/01/02 08:36:06;;;;;;;7.30;2.90;;;;;;;3.78;100.00;98425.69;5061915;28;20039;-66
2024/01/02 08:38:31;;;;;;;7.05;3.03;;;;;;;3.92;100.00;98428.09;5045209;28;20055;-70
2024/01/02 08:40:57;;;;;;;7.50;3.80;;;;;;;3.99;100.00;98413.88;5062826;28;20111;-69
2024/01/02 08:43:22;;;;;;;6.05;2.85;;;;;;;3.86;100.00;98384.78;5061214;28;20138;-68
2024/01/02 08:45:53;;;;;;;6.85;3.00;;;;;;;4.10;100.00;98400.25;5050473;28;20730;-67
2024/01/02 08:48:18;;;;;;;5.78;2.50;;;;;;;4.20;100.00;98408.97;5048830;28;20120;-66
2024/01/02 08:50:46;;;;;;;5.53;2.10;;;;;;;4.11;100.00;98403.66;5048104;28;20028;-70
2024/01/02 08:53:13;;;;;;;5.85;2.03;;;;;;;4.18;100.00;98391.97;5061512;28;20028;-70
2024/01/02 08:55:41;;;;;;;4.55;1.85;;;;;;;4.21;100.00;98399.47;5059830;28;20126;-68
2024/01/02 08:58:12;;;;;;;5.00;2.30;;;;;;;4.09;100.00;98354.88;5061331;28;20123;-69
2024/01/02 09:00:37;;;;;;;6.25;2.88;;;;;;;4.26;100.00;98389.69;5064204;28;20028;-68
2024/01/02 09:03:03;;;;;;;4.50;2.00;;;;;;;4.35;100.00;98381.28;5064434;28;20075;-69
2024/01/02 09:05:31;;;;;;;4.68;2.30;;;;;;;4.31;100.00;98376.47;5063702;28;20035;-68
2024/01/02 09:07:56;;;;;;;4.85;2.13;;;;;;;4.34;100.00;98381.41;5065959;28;20141;-69
2024/01/02 09:10:22;;;;;;;6.90;2.45;;;;;;;4.22;100.00;98385.69;5037239;28;20115;-69
2024/01/02 09:12:47;;;;;;;5.30;2.78;;;;;;;4.32;100.00;98396.97;5048905;28;20067;-69
2024/01/02 09:15:15;;;;;;;5.97;2.58;;;;;;;4.18;100.00;98392.81;5061373;28;20135;-67
2024/01/02 09:17:41;;;;;;;5.38;2.45;;;;;;;4.26;100.00;98394.03;5063247;28;20031;-69
2024/01/02 09:20:06;;;;;;;5.53;2.60;;;;;;;4.31;100.00;98385.03;5043927;28;20624;-70
2024/01/02 09:22:32;;;;;;;5.57;2.60;;;;;;;4.39;100.00;98385.28;5043614;28;20124;-67
2024/01/02 09:24:59;;;;;;;6.18;2.78;;;;;;;4.46;100.00;98384.84;5044546;28;20032;-69
2024/01/02 09:27:26;;;;;;;7.18;2.70;;;;;;;4.45;100.00;98391.75;5065375;28;20037;-68
2024/01/02 09:29:52;;;;;;;6.95;3.30;;;;;;;4.51;100.00;98393.88;5059822;28;20032;-66
2024/01/02 09:32:20;;;;;;;5.10;2.40;;;;;;;4.54;100.00;98382.53;5062082;28;20093;-68
2024/01/02 09:34:47;;;;;;;5.13;2.28;;;;;;;4.49;100.00;98372.59;5060318;28;20038;-67
2024/01/02 09:37:13;;;;;;;4.32;1.88;;;;;;;4.50;100.00;98379.34;5050577;28;20040;-68
2024/01/02 09:39:38;;;;;;;5.32;1.80;;;;;;;4.60;99.63;98384.69;5045195;28;20024;-69
2024/01/02 09:42:26;;;;;;;4.20;1.80;;;;;;;4.52;98.92;98356.06;5042032;28;20033;-69
2024/01/02 09:45:07;;;;;;;4.30;1.83;;;;;;;4.85;97.41;98369.97;5049451;28;20094;-67
2024/01/02 09:48:06;;;;;;;4.72;1.75;;;;;;;4.95;99.77;98373.50;5062128;28;20032;-69
2024/01/02 09:50:36;;;;;;;3.97;1.40;;;;;;;4.86;96.91;98387.09;5061640;28;20128;-66
2024/01/02 09:53:14;;;;;;;3.88;1.42;;;;;;;4.97;96.07;98379.38;5060379;28;20063;-66
2024/01/02 09:55:50;;;;;;;4.22;1.63;;;;;;;4.56;97.27;98318.84;5059537;28;20454;-67
2024/01/02 09:58:37;;;;;;;6.53;1.30;;;;;;;4.91;93.28;98356.63;5068619;28;20024;-68
2024/01/02 10:01:31;;;;;;;3.63;1.50;;;;;;;5.00;88.37;98359.34;5058860;28;20763;-70
2024/01/02 10:04:59;;;;;;;3.60;1.60;;;;;;;4.95;96.05;98360.63;5066687;28;20128;-70
2024/01/02 10:07:51;;;;;;;5.15;2.13;;;;;;;4.87;98.04;98358.59;4969585;28;20049;-68
2024/01/02 10:10:26;;;;;;;5.15;1.80;;;;;;;4.80;97.00;98365.16;5055540;28;20044;-70
2024/01/02 10:12:54;;;;;;;5.07;1.90;;;;;;;4.86;97.08;98349.25;5062541;28;20040;-67
2024/01/02 10:15:24;;;;;;;5.03;2.50;;;;;;;4.93;97.46;98353.00;5065354;28;20155;-67
2024/01/02 10:18:08;;;;;;;5.70;2.50;;;;;;;4.96;96.67;98342.44;5048201;28;20163;-67
2024/01/02 10:20:50;;;;;;;5.20;2.00;;;;;;;4.66;97.31;98283.78;5063199;28;20046;-68
2024/01/02 10:23:39;;;;;;;4.90;2.10;;;;;;;4.98;96.19;98321.72;5045284;28;20036;-68
2024/01/02 10:26:07;;;;;;;4.80;2.28;;;;;;;4.98;96.32;98308.84;5059304;28;20028;-68
2024/01/02 10:28:35;;;;;;;5.32;2.05;;;;;;;5.13;95.20;98301.69;5063426;28;20558;-70
2024/01/02 10:31:26;;;;;;;5.85;2.50;;;;;;;5.32;93.37;98295.97;5066185;28;20028;-69
2024/01/02 10:34:24;;;;;;;4.97;2.03;;;;;;;5.36;92.14;98285.28;5030073;28;20056;-64
2024/01/02 10:36:56;;;;;;;4.35;1.45;;;;;;;5.35;92.78;98273.34;5047859;28;20942;-66
2024/01/02 10:39:37;;;;;;;5.32;1.58;;;;;;;5.47;88.46;98278.47;5058025;28;20035;-66
2024/01/02 10:42:17;;;;;;;4.28;1.73;;;;;;;5.52;91.02;98276.34;5060809;28;20025;-68
2024/01/02 10:45:10;;;;;;;5.30;1.80;;;;;;;5.59;91.57;98280.09;5059834;28;20162;-67
2024/01/02 10:48:01;;;;;;;5.25;1.98;;;;;;;5.61;92.49;98278.19;5066873;28;20024;-66
2024/01/02 10:50:39;;;;;;;4.63;1.70;;;;;;;5.70;92.22;98276.66;5064551;28;20032;-69
2024/01/02 10:53:41;;;;;;;3.70;1.65;;;;;;;5.65;92.32;98268.47;5063092;28;20028;-67
2024/01/02 10:56:20;;;;;;;4.38;1.73;;;;;;;5.77;91.13;98283.78;5007119;28;20115;-66
2024/01/02 10:59:12;;;;;;;5.07;1.70;;;;;;;5.81;90.38;98286.13;5041287;28;20780;-67
2024/01/02 11:01:41;;;;;;;4.45;1.77;;;;;;;5.69;89.56;98280.16;5065184;28;21842;-67
2024/01/02 11:04:36;;;;;;;4.55;2.05;;;;;;;5.64;88.25;98259.06;5064737;28;20066;-69
2024/01/02 11:07:06;;;;;;;4.28;1.75;;;;;;;5.74;87.15;98265.97;5046447;28;20040;-68
2024/01/02 11:09:52;;;;;;;4.75;1.55;;;;;;;5.66;86.52;98264.91;5062106;28;20977;-66
2024/01/02 11:12:22;;;;;;;4.72;1.30;;;;;;;5.46;84.91;98212.34;5051633;28;20086;-68
2024/01/02 11:14:48;;;;;;;3.75;1.40;;;;;;;5.72;86.14;98247.22;5043956;28;20048;-67
2024/01/02 11:17:17;;;;;;;4.88;1.80;;;;;;;5.84;85.01;98250.56;5049615;28;20032;-65
2024/01/02 11:20:06;;;;;;;4.38;1.63;;;;;;;5.78;86.13;98253.63;5049170;28;20024;-67
2024/01/02 11:23:13;;;;;;;4.97;1.55;;;;;;;5.88;85.44;98248.56;5041149;28;20037;-69
2024/01/02 11:25:52;;;;;;;3.47;1.20;;;;;;;5.90;86.99;98254.41;5046218;28;20028;-69
2024/01/02 11:28:21;;;;;;;4.40;1.50;;;;;;;5.88;85.85;98253.72;5045596;28;20054;-68
2024/01/02 11:30:47;;;;;;;4.18;1.63;;;;;;;5.97;84.56;98248.66;5022192;28;20029;-67
2024/01/02 11:33:24;;;;;;;5.20;1.48;;;;;;;5.98;82.21;98246.91;5050328;28;20024;-69
2024/01/02 11:36:06;;;;;;;5.55;1.55;;;;;;;6.08;81.62;98242.63;5036742;28;20916;-67
2024/01/02 11:38:41;;;;;;;4.72;1.65;;;;;;;5.99;80.37;98209.00;5033047;28;20383;-67
2024/01/02 11:41:18;;;;;;;4.45;1.40;;;;;;;6.24;80.76;98233.63;5050675;28;20027;-66